sensor_id;sensor_type;location;lat;lon;timestamp;P1;durP1;ratioP1;P2;durP2;ratioP2
49444;SDS011;35323;43.080;-81.378;2022-08-01T00:00:48;5.40;;;3.50;;
49444;SDS011;35323;43.080;-81.378;2022-08-01T00:03:16;5.35;;;3.55;;
49444;SDS011;35323;43.080;-81.378;2022-08-01T00:05:43;5.80;;;4.13;;
49444;SDS011;35323;43.080;-81.378;2022-08-01T00:08:12;6.57;;;4.20;;
49444;SDS011;35323;43.080;-81.378;2022-08-01T00:10:39;3.45;;;3.03;;
49444;SDS011;35323;43.080;-81.378;2022-08-01T00:13:07;10.93;;;6.32;;
49444;SDS011;35323;43.080;-81.378;2022-08-01T00:15:36;6.43;;;4.65;;
49444;SDS011;35323;43.080;-81.378;2022-08-01T00:18:03;5.43;;;3.58;;
49444;SDS011;35323;43.080;-81.378;2022-08-01T00:20:31;3.10;;;1.73;;
49444;SDS011;35323;43.080;-81.378;2022-08-01T00:22:58;1.38;;;1.27;;
49444;SDS011;35323;43.080;-81.378;2022-08-01T00:25:28;2.05;;;0.60;;
49444;SDS011;35323;43.080;-81.378;2022-08-01T00:28:00;1.25;;;1.15;;
49444;SDS011;35323;43.080;-81.378;2022-08-01T00:30:30;0.80;;;0.80;;
49444;SDS011;35323;43.080;-81.378;2022-08-01T00:32:57;0.50;;;0.50;;
49444;SDS011;35323;43.080;-81.378;2022-08-01T00:35:25;0.82;;;0.77;;
49444;SDS011;35323;43.080;-81.378;2022-08-01T00:37:53;1.90;;;0.68;;
49444;SDS011;35323;43.080;-81.378;2022-08-01T00:40:20;1.00;;;0.60;;
49444;SDS011;35323;43.080;-81.378;2022-08-01T00:42:48;0.98;;;0.77;;
49444;SDS011;35323;43.080;-81.378;2022-08-01T00:45:15;0.80;;;0.60;;
49444;SDS011;35323;43.080;-81.378;2022-08-01T00:47:43;2.85;;;0.70;;
49444;SDS011;35323;43.080;-81.378;2022-08-01T00:58:17;0.88;;;0.85;;
49444;SDS011;35323;43.080;-81.378;2022-08-01T01:00:44;1.20;;;1.10;;
49444;SDS011;35323;43.080;-81.378;2022-08-01T01:03:19;1.35;;;1.15;;
49444;SDS011;35323;43.080;-81.378;2022-08-01T01:11:35;1.92;;;1.05;;
49444;SDS011;35323;43.080;-81.378;2022-08-01T01:14:05;1.35;;;1.00;;
49444;SDS011;35323;43.080;-81.378;2022-08-01T01:16:37;1.00;;;0.90;;
49444;SDS011;35323;43.080;-81.378;2022-08-01T01:30:22;0.85;;;0.82;;
49444;SDS011;35323;43.080;-81.378;2022-08-01T01:57:02;1.17;;;0.95;;
49444;SDS011;35323;43.080;-81.378;2022-08-01T01:59:32;3.33;;;1.10;;
49444;SDS011;35323;43.080;-81.378;2022-08-01T02:02:01;1.08;;;1.00;;
49444;SDS011;35323;43.080;-81.378;2022-08-01T14:01:58;2.47;;;1.90;;
49444;SDS011;35323;43.080;-81.378;2022-08-01T14:04:26;2.13;;;1.92;;
49444;SDS011;35323;43.080;-81.378;2022-08-01T14:06:53;2.85;;;2.40;;
49444;SDS011;35323;43.080;-81.378;2022-08-01T14:09:21;2.20;;;2.03;;
49444;SDS011;35323;43.080;-81.378;2022-08-01T15:10:28;2.60;;;2.05;;
49444;SDS011;35323;43.080;-81.378;2022-08-01T15:12:56;2.15;;;1.92;;
49444;SDS011;35323;43.080;-81.378;2022-08-01T15:15:27;1.48;;;1.25;;
49444;SDS011;35323;43.080;-81.378;2022-08-01T15:17:55;3.88;;;1.20;;
49444;SDS011;35323;43.080;-81.378;2022-08-01T15:20:23;2.17;;;1.98;;
49444;SDS011;35323;43.080;-81.378;2022-08-01T15:22:52;2.70;;;1.80;;
49444;SDS011;35323;43.080;-81.378;2022-08-01T15:25:20;6.15;;;2.15;;
49444;SDS011;35323;43.080;-81.378;2022-08-01T15:27:48;2.67;;;2.22;;
49444;SDS011;35323;43.080;-81.378;2022-08-01T17:45:13;2.10;;;2.00;;
49444;SDS011;35323;43.080;-81.378;2022-08-01T17:47:53;2.33;;;2.13;;
49444;SDS011;35323;43.080;-81.378;2022-08-01T17:50:21;2.17;;;2.05;;
49444;SDS011;35323;43.080;-81.378;2022-08-01T17:52:51;2.80;;;2.53;;
49444;SDS011;35323;43.080;-81.378;2022-08-01T17:55:19;2.55;;;2.08;;
49444;SDS011;35323;43.080;-81.378;2022-08-01T18:00:49;1.97;;;1.57;;
49444;SDS011;35323;43.080;-81.378;2022-08-01T18:03:16;1.92;;;1.75;;
49444;SDS011;35323;43.080;-81.378;2022-08-01T18:05:57;2.35;;;2.10;;
49444;SDS011;35323;43.080;-81.378;2022-08-01T18:08:25;2.92;;;2.35;;
49444;SDS011;35323;43.080;-81.378;2022-08-01T18:13:28;3.58;;;2.50;;
49444;SDS011;35323;43.080;-81.378;2022-08-01T18:15:55;3.28;;;2.80;;
49444;SDS011;35323;43.080;-81.378;2022-08-01T18:18:23;2.42;;;2.20;;
49444;SDS011;35323;43.080;-81.378;2022-08-01T18:21:02;3.25;;;2.55;;
49444;SDS011;35323;43.080;-81.378;2022-08-01T18:23:30;2.38;;;2.17;;
49444;SDS011;35323;43.080;-81.378;2022-08-01T18:25:59;3.60;;;2.38;;
49444;SDS011;35323;43.080;-81.378;2022-08-01T18:28:28;2.85;;;2.42;;
49444;SDS011;35323;43.080;-81.378;2022-08-01T18:31:03;5.22;;;2.47;;
49444;SDS011;35323;43.080;-81.378;2022-08-01T18:33:32;2.80;;;2.10;;
49444;SDS011;35323;43.080;-81.378;2022-08-01T18:36:00;2.40;;;2.03;;
49444;SDS011;35323;43.080;-81.378;2022-08-01T18:38:32;2.88;;;2.40;;
49444;SDS011;35323;43.080;-81.378;2022-08-01T18:41:00;4.68;;;2.20;;
49444;SDS011;35323;43.080;-81.378;2022-08-01T18:43:28;2.35;;;2.15;;
49444;SDS011;35323;43.080;-81.378;2022-08-01T18:45:55;3.08;;;2.78;;
49444;SDS011;35323;43.080;-81.378;2022-08-01T18:48:23;1.85;;;1.75;;
49444;SDS011;35323;43.080;-81.378;2022-08-01T18:50:50;2.38;;;2.17;;
49444;SDS011;35323;43.080;-81.378;2022-08-01T18:53:20;2.17;;;2.08;;
49444;SDS011;35323;43.080;-81.378;2022-08-01T18:55:49;2.92;;;1.75;;
49444;SDS011;35323;43.080;-81.378;2022-08-01T18:58:17;2.92;;;2.15;;
49444;SDS011;35323;43.080;-81.378;2022-08-01T19:00:44;2.90;;;2.47;;
49444;SDS011;35323;43.080;-81.378;2022-08-01T19:22:42;3.90;;;2.42;;
49444;SDS011;35323;43.080;-81.378;2022-08-01T19:25:10;1.98;;;1.77;;
49444;SDS011;35323;43.080;-81.378;2022-08-01T19:27:41;2.63;;;1.90;;
49444;SDS011;35323;43.080;-81.378;2022-08-01T19:30:11;3.33;;;2.70;;
49444;SDS011;35323;43.080;-81.378;2022-08-01T19:32:40;2.88;;;2.67;;
49444;SDS011;35323;43.080;-81.378;2022-08-01T19:35:09;3.22;;;1.95;;
49444;SDS011;35323;43.080;-81.378;2022-08-01T19:37:41;2.35;;;2.15;;
49444;SDS011;35323;43.080;-81.378;2022-08-01T19:40:18;2.88;;;2.38;;
49444;SDS011;35323;43.080;-81.378;2022-08-01T19:53:38;3.78;;;2.67;;
49444;SDS011;35323;43.080;-81.378;2022-08-01T19:56:07;4.00;;;2.78;;
49444;SDS011;35323;43.080;-81.378;2022-08-01T20:33:35;3.50;;;3.20;;
49444;SDS011;35323;43.080;-81.378;2022-08-01T20:36:05;2.97;;;2.60;;
49444;SDS011;35323;43.080;-81.378;2022-08-01T20:38:53;5.95;;;2.80;;
49444;SDS011;35323;43.080;-81.378;2022-08-01T20:41:23;4.90;;;3.42;;
49444;SDS011;35323;43.080;-81.378;2022-08-01T20:43:51;3.55;;;2.55;;
49444;SDS011;35323;43.080;-81.378;2022-08-01T20:46:24;4.15;;;2.97;;
49444;SDS011;35323;43.080;-81.378;2022-08-01T20:48:53;4.13;;;3.33;;
49444;SDS011;35323;43.080;-81.378;2022-08-01T20:51:25;3.13;;;2.78;;
49444;SDS011;35323;43.080;-81.378;2022-08-01T20:53:54;4.63;;;3.45;;
49444;SDS011;35323;43.080;-81.378;2022-08-01T20:56:30;2.80;;;2.35;;
49444;SDS011;35323;43.080;-81.378;2022-08-01T21:01:36;4.38;;;3.10;;
49444;SDS011;35323;43.080;-81.378;2022-08-01T21:04:25;3.88;;;3.38;;
49444;SDS011;35323;43.080;-81.378;2022-08-01T21:06:57;6.82;;;2.97;;
49444;SDS011;35323;43.080;-81.378;2022-08-01T21:09:29;6.38;;;3.03;;
49444;SDS011;35323;43.080;-81.378;2022-08-01T21:20:02;4.85;;;4.07;;
49444;SDS011;35323;43.080;-81.378;2022-08-01T23:03:05;4.47;;;3.95;;
49444;SDS011;35323;43.080;-81.378;2022-08-01T23:05:44;9.43;;;4.43;;
49444;SDS011;35323;43.080;-81.378;2022-08-01T23:08:19;4.78;;;4.28;;
49444;SDS011;35323;43.080;-81.378;2022-08-01T23:10:47;3.05;;;2.40;;
49444;SDS011;35323;43.080;-81.378;2022-08-01T23:13:14;4.30;;;3.22;;
49444;SDS011;35323;43.080;-81.378;2022-08-01T23:15:43;10.18;;;3.88;;
49444;SDS011;35323;43.080;-81.378;2022-08-01T23:18:18;6.72;;;4.28;;
49444;SDS011;35323;43.080;-81.378;2022-08-01T23:20:46;6.47;;;3.47;;
49444;SDS011;35323;43.080;-81.378;2022-08-01T23:23:15;6.65;;;4.50;;
49444;SDS011;35323;43.080;-81.378;2022-08-01T23:25:56;5.68;;;3.40;;
49444;SDS011;35323;43.080;-81.378;2022-08-01T23:28:25;5.20;;;4.05;;
49444;SDS011;35323;43.080;-81.378;2022-08-01T23:30:54;5.65;;;3.75;;
49444;SDS011;35323;43.080;-81.378;2022-08-01T23:33:22;8.73;;;4.50;;
49444;SDS011;35323;43.080;-81.378;2022-08-01T23:35:49;5.32;;;4.60;;
49444;SDS011;35323;43.080;-81.378;2022-08-01T23:38:17;9.15;;;3.47;;
49444;SDS011;35323;43.080;-81.378;2022-08-01T23:40:46;5.38;;;3.67;;
49444;SDS011;35323;43.080;-81.378;2022-08-01T23:43:13;4.03;;;3.22;;
49444;SDS011;35323;43.080;-81.378;2022-08-01T23:45:44;4.13;;;3.45;;
49444;SDS011;35323;43.080;-81.378;2022-08-01T23:48:30;5.95;;;3.17;;
49444;SDS011;35323;43.080;-81.378;2022-08-01T23:50:57;6.10;;;3.60;;
49444;SDS011;35323;43.080;-81.378;2022-08-01T23:53:25;5.88;;;3.58;;
49444;SDS011;35323;43.080;-81.378;2022-08-01T23:55:57;3.47;;;2.33;;
